sensor_id;sensor_type;location;lat;lon;timestamp;temperature;humidity
15296;DHT22;7749;49.964;7.890;2024-01-27T00:02:10;5.80;1.00
15296;DHT22;7749;49.964;7.890;2024-01-27T00:04:37;5.70;1.00
15296;DHT22;7749;49.964;7.890;2024-01-27T00:07:04;5.50;1.00
15296;DHT22;7749;49.964;7.890;2024-01-27T00:09:32;5.30;99.90
15296;DHT22;7749;49.964;7.890;2024-01-27T00:11:59;5.20;99.90
15296;DHT22;7749;49.964;7.890;2024-01-27T00:14:27;5.00;1.00
15296;DHT22;7749;49.964;7.890;2024-01-27T00:16:55;4.90;99.90
15296;DHT22;7749;49.964;7.890;2024-01-27T00:19:22;4.80;1.00
15296;DHT22;7749;49.964;7.890;2024-01-27T00:21:50;4.70;1.00
15296;DHT22;7749;49.964;7.890;2024-01-27T00:24:17;4.60;1.00
15296;DHT22;7749;49.964;7.890;2024-01-27T00:26:45;4.60;1.00
15296;DHT22;7749;49.964;7.890;2024-01-27T00:29:12;4.50;1.00
15296;DHT22;7749;49.964;7.890;2024-01-27T00:31:40;4.40;1.00
15296;DHT22;7749;49.964;7.890;2024-01-27T00:34:07;4.30;1.00
15296;DHT22;7749;49.964;7.890;2024-01-27T00:36:35;4.20;1.00
15296;DHT22;7749;49.964;7.890;2024-01-27T00:39:05;4.10;1.00
15296;DHT22;7749;49.964;7.890;2024-01-27T00:41:33;4.10;1.00
15296;DHT22;7749;49.964;7.890;2024-01-27T00:44:00;4.00;1.00
15296;DHT22;7749;49.964;7.890;2024-01-27T00:46:28;4.00;1.00
15296;DHT22;7749;49.964;7.890;2024-01-27T00:48:55;3.90;1.00
15296;DHT22;7749;49.964;7.890;2024-01-27T00:51:23;3.90;1.00
15296;DHT22;7749;49.964;7.890;2024-01-27T00:53:50;3.80;1.00
15296;DHT22;7749;49.964;7.890;2024-01-27T00:56:18;3.90;1.00
15296;DHT22;7749;49.964;7.890;2024-01-27T00:58:46;3.80;1.00
15296;DHT22;7749;49.964;7.890;2024-01-27T01:01:13;3.80;1.00
15296;DHT22;7749;49.964;7.890;2024-01-27T01:03:41;3.90;1.00
15296;DHT22;7749;49.964;7.890;2024-01-27T01:06:09;3.80;8.50
15296;DHT22;7749;49.964;7.890;2024-01-27T01:08:36;3.80;25.60
15296;DHT22;7749;49.964;7.890;2024-01-27T01:11:04;3.70;23.60
15296;DHT22;7749;49.964;7.890;2024-01-27T01:13:31;3.70;25.80
15296;DHT22;7749;49.964;7.890;2024-01-27T01:15:59;3.70;28.80
15296;DHT22;7749;49.964;7.890;2024-01-27T01:18:26;3.60;27.70
15296;DHT22;7749;49.964;7.890;2024-01-27T01:20:54;3.60;45.10
15296;DHT22;7749;49.964;7.890;2024-01-27T01:23:21;3.60;69.00
15296;DHT22;7749;49.964;7.890;2024-01-27T01:25:49;3.60;73.80
15296;DHT22;7749;49.964;7.890;2024-01-27T01:28:17;3.60;79.70
15296;DHT22;7749;49.964;7.890;2024-01-27T01:30:45;3.60;89.40
15296;DHT22;7749;49.964;7.890;2024-01-27T01:33:12;3.50;87.90
15296;DHT22;7749;49.964;7.890;2024-01-27T01:35:40;3.40;90.70
15296;DHT22;7749;49.964;7.890;2024-01-27T01:38:07;3.40;99.90
15296;DHT22;7749;49.964;7.890;2024-01-27T01:40:35;3.40;99.90
15296;DHT22;7749;49.964;7.890;2024-01-27T01:43:03;3.30;99.90
15296;DHT22;7749;49.964;7.890;2024-01-27T01:45:31;3.30;99.90
15296;DHT22;7749;49.964;7.890;2024-01-27T01:47:59;3.30;99.90
15296;DHT22;7749;49.964;7.890;2024-01-27T01:50:27;3.30;99.90
15296;DHT22;7749;49.964;7.890;2024-01-27T01:52:54;3.20;99.90
15296;DHT22;7749;49.964;7.890;2024-01-27T01:55:22;3.10;99.90
15296;DHT22;7749;49.964;7.890;2024-01-27T01:57:51;3.00;99.90
15296;DHT22;7749;49.964;7.890;2024-01-27T02:00:19;3.00;99.90
15296;DHT22;7749;49.964;7.890;2024-01-27T02:02:48;2.90;99.90
15296;DHT22;7749;49.964;7.890;2024-01-27T02:05:15;2.90;99.90
15296;DHT22;7749;49.964;7.890;2024-01-27T02:07:43;2.90;99.90
15296;DHT22;7749;49.964;7.890;2024-01-27T02:10:14;2.80;99.90
15296;DHT22;7749;49.964;7.890;2024-01-27T02:12:45;2.80;99.90
15296;DHT22;7749;49.964;7.890;2024-01-27T02:15:13;2.70;99.90
15296;DHT22;7749;49.964;7.890;2024-01-27T02:17:41;2.70;99.90
15296;DHT22;7749;49.964;7.890;2024-01-27T02:20:09;2.60;99.90
15296;DHT22;7749;49.964;7.890;2024-01-27T02:22:37;2.60;99.90
15296;DHT22;7749;49.964;7.890;2024-01-27T02:25:05;2.60;99.90
15296;DHT22;7749;49.964;7.890;2024-01-27T02:27:32;2.70;99.90
15296;DHT22;7749;49.964;7.890;2024-01-27T02:30:00;2.80;99.90
15296;DHT22;7749;49.964;7.890;2024-01-27T02:32:27;2.80;99.90
15296;DHT22;7749;49.964;7.890;2024-01-27T02:34:55;2.80;99.90
15296;DHT22;7749;49.964;7.890;2024-01-27T02:37:22;2.70;99.90
15296;DHT22;7749;49.964;7.890;2024-01-27T02:39:50;2.70;99.90
15296;DHT22;7749;49.964;7.890;2024-01-27T02:42:17;2.60;99.90
15296;DHT22;7749;49.964;7.890;2024-01-27T02:44:45;2.60;99.90
15296;DHT22;7749;49.964;7.890;2024-01-27T02:47:12;2.50;99.90
15296;DHT22;7749;49.964;7.890;2024-01-27T02:49:40;2.50;99.90
15296;DHT22;7749;49.964;7.890;2024-01-27T02:52:08;2.40;99.90
15296;DHT22;7749;49.964;7.890;2024-01-27T02:54:36;2.40;99.90
15296;DHT22;7749;49.964;7.890;2024-01-27T02:57:03;2.40;99.90
15296;DHT22;7749;49.964;7.890;2024-01-27T02:59:31;2.40;99.90
15296;DHT22;7749;49.964;7.890;2024-01-27T03:01:58;2.40;99.90
15296;DHT22;7749;49.964;7.890;2024-01-27T03:04:25;2.50;99.90
15296;DHT22;7749;49.964;7.890;2024-01-27T03:06:53;2.70;99.90
15296;DHT22;7749;49.964;7.890;2024-01-27T03:09:20;2.80;99.90
15296;DHT22;7749;49.964;7.890;2024-01-27T03:11:47;2.90;99.90
15296;DHT22;7749;49.964;7.890;2024-01-27T03:14:15;2.90;99.90
15296;DHT22;7749;49.964;7.890;2024-01-27T03:16:43;2.90;99.90
15296;DHT22;7749;49.964;7.890;2024-01-27T03:19:11;2.90;99.90
15296;DHT22;7749;49.964;7.890;2024-01-27T03:21:39;2.80;99.90
15296;DHT22;7749;49.964;7.890;2024-01-27T03:24:07;2.70;99.90
15296;DHT22;7749;49.964;7.890;2024-01-27T03:26:35;2.60;99.90
15296;DHT22;7749;49.964;7.890;2024-01-27T03:29:02;2.60;99.90
15296;DHT22;7749;49.964;7.890;2024-01-27T03:31:31;2.50;99.90
15296;DHT22;7749;49.964;7.890;2024-01-27T03:33:59;2.50;99.90
15296;DHT22;7749;49.964;7.890;2024-01-27T03:36:27;2.30;99.90
15296;DHT22;7749;49.964;7.890;2024-01-27T03:38:56;2.30;99.90
15296;DHT22;7749;49.964;7.890;2024-01-27T03:41:24;2.20;99.90
15296;DHT22;7749;49.964;7.890;2024-01-27T03:43:52;2.20;99.90
15296;DHT22;7749;49.964;7.890;2024-01-27T03:46:19;2.20;99.90
15296;DHT22;7749;49.964;7.890;2024-01-27T03:48:46;2.20;99.90
15296;DHT22;7749;49.964;7.890;2024-01-27T03:51:14;2.30;99.90
15296;DHT22;7749;49.964;7.890;2024-01-27T03:53:41;2.20;99.90
15296;DHT22;7749;49.964;7.890;2024-01-27T03:56:12;2.10;99.90
15296;DHT22;7749;49.964;7.890;2024-01-27T03:58:39;2.10;99.90
15296;DHT22;7749;49.964;7.890;2024-01-27T04:01:07;2.10;99.90
15296;DHT22;7749;49.964;7.890;2024-01-27T04:03:34;2.00;99.90
15296;DHT22;7749;49.964;7.890;2024-01-27T04:06:02;1.90;99.90
15296;DHT22;7749;49.964;7.890;2024-01-27T04:08:30;1.80;99.90
15296;DHT22;7749;49.964;7.890;2024-01-27T04:10:58;1.90;99.90
15296;DHT22;7749;49.964;7.890;2024-01-27T04:13:25;1.90;99.90
15296;DHT22;7749;49.964;7.890;2024-01-27T04:15:53;1.90;99.90
15296;DHT22;7749;49.964;7.890;2024-01-27T04:18:21;1.90;99.90
15296;DHT22;7749;49.964;7.890;2024-01-27T04:20:49;1.90;99.90
15296;DHT22;7749;49.964;7.890;2024-01-27T04:23:16;1.80;99.90
15296;DHT22;7749;49.964;7.890;2024-01-27T04:25:44;1.70;99.90
15296;DHT22;7749;49.964;7.890;2024-01-27T04:28:11;1.70;99.90
15296;DHT22;7749;49.964;7.890;2024-01-27T04:30:40;1.60;99.90
15296;DHT22;7749;49.964;7.890;2024-01-27T04:33:07;1.60;99.90
15296;DHT22;7749;49.964;7.890;2024-01-27T04:35:35;1.50;99.90
15296;DHT22;7749;49.964;7.890;2024-01-27T04:38:03;1.50;99.90
15296;DHT22;7749;49.964;7.890;2024-01-27T04:40:30;1.50;99.90
15296;DHT22;7749;49.964;7.890;2024-01-27T04:42:58;1.50;99.90
15296;DHT22;7749;49.964;7.890;2024-01-27T04:45:25;1.50;99.90
15296;DHT22;7749;49.964;7.890;2024-01-27T04:47:53;1.50;99.90
15296;DHT22;7749;49.964;7.890;2024-01-27T04:50:21;1.60;99.90
15296;DHT22;7749;49.964;7.890;2024-01-27T04:52:48;1.70;99.90
15296;DHT22;7749;49.964;7.890;2024-01-27T04:55:15;1.70;99.90
15296;DHT22;7749;49.964;7.890;2024-01-27T04:57:43;1.70;99.90
15296;DHT22;7749;49.964;7.890;2024-01-27T05:00:11;1.80;99.90
15296;DHT22;7749;49.964;7.890;2024-01-27T05:02:40;1.80;99.90
15296;DHT22;7749;49.964;7.890;2024-01-27T05:05:08;1.70;99.90
15296;DHT22;7749;49.964;7.890;2024-01-27T05:07:36;1.70;99.90
15296;DHT22;7749;49.964;7.890;2024-01-27T05:10:03;1.70;99.90
15296;DHT22;7749;49.964;7.890;2024-01-27T05:12:31;1.70;99.90
15296;DHT22;7749;49.964;7.890;2024-01-27T05:14:59;1.60;99.90
15296;DHT22;7749;49.964;7.890;2024-01-27T05:17:26;1.60;99.90
15296;DHT22;7749;49.964;7.890;2024-01-27T05:19:54;1.50;99.90
15296;DHT22;7749;49.964;7.890;2024-01-27T05:22:21;1.50;99.90
15296;DHT22;7749;49.964;7.890;2024-01-27T05:24:49;1.50;99.90
15296;DHT22;7749;49.964;7.890;2024-01-27T05:27:16;1.40;99.90
15296;DHT22;7749;49.964;7.890;2024-01-27T05:29:44;1.40;99.90
15296;DHT22;7749;49.964;7.890;2024-01-27T05:32:11;1.40;99.90
15296;DHT22;7749;49.964;7.890;2024-01-27T05:34:38;1.20;99.90
15296;DHT22;7749;49.964;7.890;2024-01-27T05:37:06;1.20;99.90
15296;DHT22;7749;49.964;7.890;2024-01-27T05:39:33;1.20;99.90
15296;DHT22;7749;49.964;7.890;2024-01-27T05:42:01;1.20;99.90
15296;DHT22;7749;49.964;7.890;2024-01-27T05:44:28;1.20;99.90
15296;DHT22;7749;49.964;7.890;2024-01-27T05:46:56;1.10;99.90
15296;DHT22;7749;49.964;7.890;2024-01-27T05:49:23;1.10;99.90
15296;DHT22;7749;49.964;7.890;2024-01-27T05:51:51;1.20;99.90
15296;DHT22;7749;49.964;7.890;2024-01-27T05:54:18;1.20;99.90
15296;DHT22;7749;49.964;7.890;2024-01-27T05:56:45;1.20;99.90
15296;DHT22;7749;49.964;7.890;2024-01-27T05:59:13;1.20;99.90
15296;DHT22;7749;49.964;7.890;2024-01-27T06:01:40;1.20;99.90
15296;DHT22;7749;49.964;7.890;2024-01-27T06:04:08;1.30;99.90
15296;DHT22;7749;49.964;7.890;2024-01-27T06:06:38;1.30;99.90
15296;DHT22;7749;49.964;7.890;2024-01-27T06:09:07;1.30;99.90
15296;DHT22;7749;49.964;7.890;2024-01-27T06:11:38;1.30;99.90
15296;DHT22;7749;49.964;7.890;2024-01-27T06:14:06;1.30;99.90
15296;DHT22;7749;49.964;7.890;2024-01-27T06:16:33;1.30;99.90
15296;DHT22;7749;49.964;7.890;2024-01-27T06:19:02;1.30;99.90
15296;DHT22;7749;49.964;7.890;2024-01-27T06:21:30;1.30;99.90
15296;DHT22;7749;49.964;7.890;2024-01-27T06:23:58;1.30;99.90
15296;DHT22;7749;49.964;7.890;2024-01-27T06:26:25;1.40;99.90
15296;DHT22;7749;49.964;7.890;2024-01-27T06:28:53;1.30;99.90
15296;DHT22;7749;49.964;7.890;2024-01-27T06:31:20;1.30;99.90
15296;DHT22;7749;49.964;7.890;2024-01-27T06:33:48;1.30;99.90
15296;DHT22;7749;49.964;7.890;2024-01-27T06:36:16;1.20;99.90
15296;DHT22;7749;49.964;7.890;2024-01-27T06:38:44;1.10;99.90
15296;DHT22;7749;49.964;7.890;2024-01-27T06:41:11;1.10;99.90
15296;DHT22;7749;49.964;7.890;2024-01-27T06:43:38;1.10;99.90
15296;DHT22;7749;49.964;7.890;2024-01-27T06:46:06;1.10;99.90
15296;DHT22;7749;49.964;7.890;2024-01-27T06:48:33;1.00;99.90
15296;DHT22;7749;49.964;7.890;2024-01-27T06:51:01;1.00;99.90
15296;DHT22;7749;49.964;7.890;2024-01-27T06:53:29;1.00;99.90
15296;DHT22;7749;49.964;7.890;2024-01-27T06:55:56;0.90;99.90
15296;DHT22;7749;49.964;7.890;2024-01-27T06:58:23;0.90;99.90
15296;DHT22;7749;49.964;7.890;2024-01-27T07:00:51;0.90;99.90
15296;DHT22;7749;49.964;7.890;2024-01-27T07:03:18;0.90;99.90
15296;DHT22;7749;49.964;7.890;2024-01-27T07:05:46;0.90;99.90
15296;DHT22;7749;49.964;7.890;2024-01-27T07:08:13;1.00;99.90
15296;DHT22;7749;49.964;7.890;2024-01-27T07:10:41;1.00;99.90
15296;DHT22;7749;49.964;7.890;2024-01-27T07:13:08;1.10;99.90
15296;DHT22;7749;49.964;7.890;2024-01-27T07:15:35;1.10;99.90
15296;DHT22;7749;49.964;7.890;2024-01-27T07:18:06;1.00;99.90
15296;DHT22;7749;49.964;7.890;2024-01-27T07:20:35;1.00;99.90
15296;DHT22;7749;49.964;7.890;2024-01-27T07:23:03;1.00;99.90
15296;DHT22;7749;49.964;7.890;2024-01-27T07:25:30;1.00;99.90
15296;DHT22;7749;49.964;7.890;2024-01-27T07:27:58;1.00;99.90
15296;DHT22;7749;49.964;7.890;2024-01-27T07:30:25;1.00;99.90
15296;DHT22;7749;49.964;7.890;2024-01-27T07:32:53;0.90;99.90
15296;DHT22;7749;49.964;7.890;2024-01-27T07:35:20;0.90;99.90
15296;DHT22;7749;49.964;7.890;2024-01-27T07:37:48;0.90;99.90
15296;DHT22;7749;49.964;7.890;2024-01-27T07:40:15;1.00;99.90
15296;DHT22;7749;49.964;7.890;2024-01-27T07:42:42;1.00;99.90
15296;DHT22;7749;49.964;7.890;2024-01-27T07:45:10;1.10;99.90
15296;DHT22;7749;49.964;7.890;2024-01-27T07:47:38;1.00;99.90
15296;DHT22;7749;49.964;7.890;2024-01-27T07:50:05;1.00;99.90
15296;DHT22;7749;49.964;7.890;2024-01-27T07:52:33;1.00;99.90
15296;DHT22;7749;49.964;7.890;2024-01-27T07:55:00;0.90;99.90
15296;DHT22;7749;49.964;7.890;2024-01-27T07:57:28;1.00;99.90
15296;DHT22;7749;49.964;7.890;2024-01-27T07:59:55;1.00;99.90
15296;DHT22;7749;49.964;7.890;2024-01-27T08:02:23;1.00;99.90
15296;DHT22;7749;49.964;7.890;2024-01-27T08:04:50;1.10;99.90
15296;DHT22;7749;49.964;7.890;2024-01-27T08:07:18;1.20;99.90
15296;DHT22;7749;49.964;7.890;2024-01-27T08:09:45;1.20;99.90
15296;DHT22;7749;49.964;7.890;2024-01-27T08:12:13;1.30;99.90
15296;DHT22;7749;49.964;7.890;2024-01-27T08:14:40;1.40;99.90
15296;DHT22;7749;49.964;7.890;2024-01-27T08:17:08;1.50;99.90
15296;DHT22;7749;49.964;7.890;2024-01-27T08:19:35;1.50;99.90
15296;DHT22;7749;49.964;7.890;2024-01-27T08:22:03;1.60;99.90
15296;DHT22;7749;49.964;7.890;2024-01-27T08:24:31;1.60;99.90
15296;DHT22;7749;49.964;7.890;2024-01-27T08:26:58;1.60;99.90
15296;DHT22;7749;49.964;7.890;2024-01-27T08:29:25;1.70;99.90
15296;DHT22;7749;49.964;7.890;2024-01-27T08:31:53;1.80;99.90
15296;DHT22;7749;49.964;7.890;2024-01-27T08:34:20;1.90;99.90
15296;DHT22;7749;49.964;7.890;2024-01-27T08:36:48;2.00;99.90
15296;DHT22;7749;49.964;7.890;2024-01-27T08:39:15;2.10;99.90
15296;DHT22;7749;49.964;7.890;2024-01-27T08:41:43;2.20;99.90
15296;DHT22;7749;49.964;7.890;2024-01-27T08:44:11;2.30;99.90
15296;DHT22;7749;49.964;7.890;2024-01-27T08:46:38;2.30;99.90
15296;DHT22;7749;49.964;7.890;2024-01-27T08:49:06;2.40;99.90
15296;DHT22;7749;49.964;7.890;2024-01-27T08:51:33;2.50;99.90
15296;DHT22;7749;49.964;7.890;2024-01-27T08:54:02;2.60;99.90
15296;DHT22;7749;49.964;7.890;2024-01-27T08:56:29;2.70;99.90
15296;DHT22;7749;49.964;7.890;2024-01-27T08:58:56;2.80;99.90
15296;DHT22;7749;49.964;7.890;2024-01-27T09:01:24;2.80;99.90
15296;DHT22;7749;49.964;7.890;2024-01-27T09:03:52;2.90;99.90
15296;DHT22;7749;49.964;7.890;2024-01-27T09:06:20;3.00;99.90
15296;DHT22;7749;49.964;7.890;2024-01-27T09:08:47;3.10;99.90
15296;DHT22;7749;49.964;7.890;2024-01-27T09:11:15;3.20;99.90
15296;DHT22;7749;49.964;7.890;2024-01-27T09:13:42;3.20;99.90
15296;DHT22;7749;49.964;7.890;2024-01-27T09:16:12;3.30;99.90
15296;DHT22;7749;49.964;7.890;2024-01-27T09:18:41;3.30;99.90
15296;DHT22;7749;49.964;7.890;2024-01-27T09:21:08;3.40;99.90
15296;DHT22;7749;49.964;7.890;2024-01-27T09:23:36;3.50;99.90
15296;DHT22;7749;49.964;7.890;2024-01-27T09:26:05;3.70;99.90
15296;DHT22;7749;49.964;7.890;2024-01-27T09:28:32;3.80;99.90
15296;DHT22;7749;49.964;7.890;2024-01-27T09:31:00;3.90;99.90
15296;DHT22;7749;49.964;7.890;2024-01-27T09:33:27;4.00;99.90
15296;DHT22;7749;49.964;7.890;2024-01-27T09:35:55;4.00;99.90
15296;DHT22;7749;49.964;7.890;2024-01-27T09:38:22;4.10;99.90
15296;DHT22;7749;49.964;7.890;2024-01-27T09:40:50;4.10;99.90
15296;DHT22;7749;49.964;7.890;2024-01-27T09:43:18;4.10;99.90
15296;DHT22;7749;49.964;7.890;2024-01-27T09:45:47;4.10;99.90
15296;DHT22;7749;49.964;7.890;2024-01-27T09:48:15;4.10;99.90
15296;DHT22;7749;49.964;7.890;2024-01-27T09:50:45;4.10;99.90
15296;DHT22;7749;49.964;7.890;2024-01-27T09:53:14;4.20;99.90
15296;DHT22;7749;49.964;7.890;2024-01-27T09:55:43;4.30;99.90
15296;DHT22;7749;49.964;7.890;2024-01-27T09:58:12;4.40;99.90
15296;DHT22;7749;49.964;7.890;2024-01-27T10:00:40;4.40;99.90
15296;DHT22;7749;49.964;7.890;2024-01-27T10:03:09;4.50;99.90
15296;DHT22;7749;49.964;7.890;2024-01-27T10:05:37;4.50;99.90
15296;DHT22;7749;49.964;7.890;2024-01-27T10:08:06;4.60;99.90
15296;DHT22;7749;49.964;7.890;2024-01-27T10:10:36;4.70;99.90
15296;DHT22;7749;49.964;7.890;2024-01-27T10:13:04;4.70;99.90
15296;DHT22;7749;49.964;7.890;2024-01-27T10:15:31;4.70;99.90
15296;DHT22;7749;49.964;7.890;2024-01-27T10:18:06;4.80;99.90
15296;DHT22;7749;49.964;7.890;2024-01-27T10:20:34;5.00;99.90
15296;DHT22;7749;49.964;7.890;2024-01-27T10:23:12;5.10;99.90
15296;DHT22;7749;49.964;7.890;2024-01-27T10:25:40;5.20;99.90
15296;DHT22;7749;49.964;7.890;2024-01-27T10:28:08;5.40;99.90
15296;DHT22;7749;49.964;7.890;2024-01-27T10:30:36;5.50;99.90
15296;DHT22;7749;49.964;7.890;2024-01-27T10:33:04;5.60;99.90
15296;DHT22;7749;49.964;7.890;2024-01-27T10:35:32;5.70;99.90
15296;DHT22;7749;49.964;7.890;2024-01-27T10:38:00;5.80;99.90
15296;DHT22;7749;49.964;7.890;2024-01-27T10:40:28;6.00;99.90
15296;DHT22;7749;49.964;7.890;2024-01-27T10:43:07;6.00;99.90
15296;DHT22;7749;49.964;7.890;2024-01-27T10:45:41;6.10;99.90
15296;DHT22;7749;49.964;7.890;2024-01-27T10:48:10;6.30;99.90
15296;DHT22;7749;49.964;7.890;2024-01-27T10:50:42;6.40;99.90
15296;DHT22;7749;49.964;7.890;2024-01-27T10:53:22;6.50;99.90
15296;DHT22;7749;49.964;7.890;2024-01-27T10:55:58;7.70;99.90
15296;DHT22;7749;49.964;7.890;2024-01-27T10:58:26;10.50;99.90
15296;DHT22;7749;49.964;7.890;2024-01-27T11:00:56;12.90;96.40
15296;DHT22;7749;49.964;7.890;2024-01-27T11:03:24;14.90;99.90
15296;DHT22;7749;49.964;7.890;2024-01-27T11:05:54;15.90;1.00
15296;DHT22;7749;49.964;7.890;2024-01-27T11:08:24;17.10;1.00
15296;DHT22;7749;49.964;7.890;2024-01-27T11:11:09;17.10;1.00
15296;DHT22;7749;49.964;7.890;2024-01-27T11:13:51;17.80;1.00
15296;DHT22;7749;49.964;7.890;2024-01-27T11:16:19;18.20;1.00
15296;DHT22;7749;49.964;7.890;2024-01-27T11:18:48;18.60;99.90
15296;DHT22;7749;49.964;7.890;2024-01-27T11:21:16;19.20;99.90
15296;DHT22;7749;49.964;7.890;2024-01-27T11:23:47;19.10;99.90
15296;DHT22;7749;49.964;7.890;2024-01-27T11:26:22;19.70;99.90
15296;DHT22;7749;49.964;7.890;2024-01-27T11:28:50;19.40;99.90
15296;DHT22;7749;49.964;7.890;2024-01-27T11:31:19;19.50;99.90
15296;DHT22;7749;49.964;7.890;2024-01-27T11:33:50;19.10;99.90
15296;DHT22;7749;49.964;7.890;2024-01-27T11:36:22;19.60;99.90
15296;DHT22;7749;49.964;7.890;2024-01-27T11:38:51;19.50;99.90
15296;DHT22;7749;49.964;7.890;2024-01-27T11:41:27;20.20;99.90
15296;DHT22;7749;49.964;7.890;2024-01-27T11:43:56;20.20;99.90
15296;DHT22;7749;49.964;7.890;2024-01-27T11:46:23;20.50;99.90
15296;DHT22;7749;49.964;7.890;2024-01-27T11:48:52;21.20;99.90
15296;DHT22;7749;49.964;7.890;2024-01-27T11:51:20;21.10;99.90
15296;DHT22;7749;49.964;7.890;2024-01-27T11:53:50;20.70;99.90
15296;DHT22;7749;49.964;7.890;2024-01-27T11:56:18;20.80;99.90
15296;DHT22;7749;49.964;7.890;2024-01-27T11:58:49;20.90;99.90
15296;DHT22;7749;49.964;7.890;2024-01-27T12:01:17;20.80;99.90
15296;DHT22;7749;49.964;7.890;2024-01-27T12:03:45;21.40;99.90
15296;DHT22;7749;49.964;7.890;2024-01-27T12:06:13;22.30;99.90
15296;DHT22;7749;49.964;7.890;2024-01-27T12:08:42;22.80;99.90
15296;DHT22;7749;49.964;7.890;2024-01-27T12:11:16;23.00;99.90
15296;DHT22;7749;49.964;7.890;2024-01-27T12:13:51;22.40;99.90
15296;DHT22;7749;49.964;7.890;2024-01-27T12:16:21;22.10;99.90
15296;DHT22;7749;49.964;7.890;2024-01-27T12:18:53;21.80;99.90
15296;DHT22;7749;49.964;7.890;2024-01-27T12:21:22;20.50;99.90
15296;DHT22;7749;49.964;7.890;2024-01-27T12:23:55;19.10;99.90
15296;DHT22;7749;49.964;7.890;2024-01-27T12:26:30;17.90;99.90
15296;DHT22;7749;49.964;7.890;2024-01-27T12:29:12;17.90;99.90
15296;DHT22;7749;49.964;7.890;2024-01-27T12:31:54;19.00;99.90
15296;DHT22;7749;49.964;7.890;2024-01-27T12:34:22;21.00;99.90
15296;DHT22;7749;49.964;7.890;2024-01-27T12:36:52;21.60;99.90
15296;DHT22;7749;49.964;7.890;2024-01-27T12:39:20;22.00;99.90
15296;DHT22;7749;49.964;7.890;2024-01-27T12:41:48;22.30;99.90
15296;DHT22;7749;49.964;7.890;2024-01-27T12:44:15;22.00;99.90
15296;DHT22;7749;49.964;7.890;2024-01-27T12:46:42;22.50;99.90
15296;DHT22;7749;49.964;7.890;2024-01-27T12:49:10;23.00;99.90
15296;DHT22;7749;49.964;7.890;2024-01-27T12:51:38;23.30;99.90
15296;DHT22;7749;49.964;7.890;2024-01-27T12:54:09;22.80;99.90
15296;DHT22;7749;49.964;7.890;2024-01-27T12:56:37;22.90;99.90
15296;DHT22;7749;49.964;7.890;2024-01-27T12:59:05;23.70;99.90
15296;DHT22;7749;49.964;7.890;2024-01-27T13:01:34;23.80;99.90
15296;DHT22;7749;49.964;7.890;2024-01-27T13:04:01;24.30;99.90
15296;DHT22;7749;49.964;7.890;2024-01-27T13:06:28;24.30;99.90
15296;DHT22;7749;49.964;7.890;2024-01-27T13:08:56;24.30;99.90
15296;DHT22;7749;49.964;7.890;2024-01-27T13:11:23;23.90;99.90
15296;DHT22;7749;49.964;7.890;2024-01-27T13:13:51;23.70;99.90
15296;DHT22;7749;49.964;7.890;2024-01-27T13:16:19;23.30;99.90
15296;DHT22;7749;49.964;7.890;2024-01-27T13:18:46;23.00;99.90
15296;DHT22;7749;49.964;7.890;2024-01-27T13:21:14;22.70;99.90
15296;DHT22;7749;49.964;7.890;2024-01-27T13:23:42;23.00;99.90
15296;DHT22;7749;49.964;7.890;2024-01-27T13:26:09;22.70;99.90
15296;DHT22;7749;49.964;7.890;2024-01-27T13:28:46;23.00;99.90
15296;DHT22;7749;49.964;7.890;2024-01-27T13:31:16;22.70;99.00
15296;DHT22;7749;49.964;7.890;2024-01-27T13:33:44;22.70;99.90
15296;DHT22;7749;49.964;7.890;2024-01-27T13:36:12;23.10;97.30
15296;DHT22;7749;49.964;7.890;2024-01-27T13:38:39;23.20;95.60
15296;DHT22;7749;49.964;7.890;2024-01-27T13:41:07;23.00;92.40
15296;DHT22;7749;49.964;7.890;2024-01-27T13:43:34;23.00;91.90
15296;DHT22;7749;49.964;7.890;2024-01-27T13:46:02;22.70;91.50
15296;DHT22;7749;49.964;7.890;2024-01-27T13:48:29;22.10;92.70
15296;DHT22;7749;49.964;7.890;2024-01-27T13:50:57;22.40;93.10
15296;DHT22;7749;49.964;7.890;2024-01-27T13:53:25;22.10;91.30
15296;DHT22;7749;49.964;7.890;2024-01-27T13:56:10;22.30;99.90
15296;DHT22;7749;49.964;7.890;2024-01-27T13:58:37;22.10;90.30
15296;DHT22;7749;49.964;7.890;2024-01-27T14:01:06;21.90;90.00
15296;DHT22;7749;49.964;7.890;2024-01-27T14:03:33;21.40;90.10
15296;DHT22;7749;49.964;7.890;2024-01-27T14:06:01;21.40;91.30
15296;DHT22;7749;49.964;7.890;2024-01-27T14:08:28;20.50;91.60
15296;DHT22;7749;49.964;7.890;2024-01-27T14:10:56;19.90;97.30
15296;DHT22;7749;49.964;7.890;2024-01-27T14:13:25;19.70;96.50
15296;DHT22;7749;49.964;7.890;2024-01-27T14:15:53;19.40;97.30
15296;DHT22;7749;49.964;7.890;2024-01-27T14:18:21;19.00;99.30
15296;DHT22;7749;49.964;7.890;2024-01-27T14:20:49;18.80;99.90
15296;DHT22;7749;49.964;7.890;2024-01-27T14:23:18;19.10;99.90
15296;DHT22;7749;49.964;7.890;2024-01-27T14:25:45;19.80;99.90
15296;DHT22;7749;49.964;7.890;2024-01-27T14:28:15;20.50;99.20
15296;DHT22;7749;49.964;7.890;2024-01-27T14:30:43;20.00;98.70
15296;DHT22;7749;49.964;7.890;2024-01-27T14:33:12;19.10;99.90
15296;DHT22;7749;49.964;7.890;2024-01-27T14:35:40;17.60;99.90
15296;DHT22;7749;49.964;7.890;2024-01-27T14:38:07;15.90;99.90
15296;DHT22;7749;49.964;7.890;2024-01-27T14:40:37;14.80;99.90
15296;DHT22;7749;49.964;7.890;2024-01-27T14:43:05;13.80;99.90
15296;DHT22;7749;49.964;7.890;2024-01-27T14:45:37;12.90;99.90
15296;DHT22;7749;49.964;7.890;2024-01-27T14:48:05;12.10;99.90
15296;DHT22;7749;49.964;7.890;2024-01-27T14:50:33;11.50;99.90
15296;DHT22;7749;49.964;7.890;2024-01-27T14:53:00;11.10;99.90
15296;DHT22;7749;49.964;7.890;2024-01-27T14:55:31;10.80;99.90
15296;DHT22;7749;49.964;7.890;2024-01-27T14:58:00;10.40;1.00
15296;DHT22;7749;49.964;7.890;2024-01-27T15:00:29;10.20;1.00
15296;DHT22;7749;49.964;7.890;2024-01-27T15:02:56;9.90;1.00
15296;DHT22;7749;49.964;7.890;2024-01-27T15:05:24;9.80;1.00
15296;DHT22;7749;49.964;7.890;2024-01-27T15:07:51;9.60;1.00
15296;DHT22;7749;49.964;7.890;2024-01-27T15:10:19;9.50;1.00
15296;DHT22;7749;49.964;7.890;2024-01-27T15:12:49;9.30;1.00
15296;DHT22;7749;49.964;7.890;2024-01-27T15:15:18;9.10;1.00
15296;DHT22;7749;49.964;7.890;2024-01-27T15:17:46;8.90;28.60
15296;DHT22;7749;49.964;7.890;2024-01-27T15:20:13;8.80;33.50
15296;DHT22;7749;49.964;7.890;2024-01-27T15:22:42;8.70;39.40
15296;DHT22;7749;49.964;7.890;2024-01-27T15:25:11;8.60;44.20
15296;DHT22;7749;49.964;7.890;2024-01-27T15:27:38;8.50;45.90
15296;DHT22;7749;49.964;7.890;2024-01-27T15:30:07;8.40;52.50
15296;DHT22;7749;49.964;7.890;2024-01-27T15:32:35;8.40;58.00
15296;DHT22;7749;49.964;7.890;2024-01-27T15:35:03;8.30;61.20
15296;DHT22;7749;49.964;7.890;2024-01-27T15:37:31;8.20;66.50
15296;DHT22;7749;49.964;7.890;2024-01-27T15:39:59;8.20;73.50
15296;DHT22;7749;49.964;7.890;2024-01-27T15:42:26;8.10;78.20
15296;DHT22;7749;49.964;7.890;2024-01-27T15:44:55;7.90;86.00
15296;DHT22;7749;49.964;7.890;2024-01-27T15:47:22;7.70;91.80
15296;DHT22;7749;49.964;7.890;2024-01-27T15:49:53;7.60;93.20
15296;DHT22;7749;49.964;7.890;2024-01-27T15:52:24;7.50;94.20
15296;DHT22;7749;49.964;7.890;2024-01-27T15:54:51;7.50;95.30
15296;DHT22;7749;49.964;7.890;2024-01-27T15:57:19;7.40;97.40
15296;DHT22;7749;49.964;7.890;2024-01-27T15:59:46;7.40;98.30
15296;DHT22;7749;49.964;7.890;2024-01-27T16:02:14;7.20;99.70
15296;DHT22;7749;49.964;7.890;2024-01-27T16:04:43;7.10;99.90
15296;DHT22;7749;49.964;7.890;2024-01-27T16:07:10;7.00;99.90